ePrivacy and GPDR Cookie Consent by Cookie Consent
EmailTwitter


Observations de surface / Québec / CYMX

Régions: Québec | Canada | États-Unis | Europe | France | UK | Ailleurs
Station
Affichage
Infos & localisation pour CYMX | Aide pour décoder les METARs

Observations prises le 2021-10-17 à 16H00 UTC à MONTREAL MIRABEL, QB (CYMX)

Etat du ciel: partiellement nuageux.

Température: 12.0 Celsius

Point de rosée: 6.0 Celsius

Humidité relative: 67%

Vents: Sud-ouest à 7 km/h ou 4 noeuds.

Pression au niveau moyen de la mer: 100.59 kilopascals.

Calage altimétrique: 100.54 kilopascals ou 29.69 pouces de mercure.

Visibilité horizontale: 30.00 milles terrestres ou 48.00 kilomètres.

Hauteur du plafond: 1280 mètres ( 4200 pieds ).

Observation METAR:

CYMX 171600Z 23004KT 210V300 30SM SCT028 BKN042 12/06 A2969 RMK SC3SC3 SLP059=